EDDB/SXF METAR and TAF weather

Enter ICAO airport designator
Station Type Date Time Source
EDDB METAR 2023/01/30 11:20 UTC NOAA

EDDB 301120Z AUTO 27020G33KT 9999 BKN023 BKN029 OVC039 06/02 Q1005 TEMPO 28025G35KT SHRA BKN020CB


Station Type Date Time Source
EDDB Decoded METAR 2023/01/30 11:20 UTC NOAA

Berlin-Schoenefeld, Germany (EDDB) 52-23N 013-31E 50M
Jan 30, 2023 - 06:20 AM EST / 2023.01.30 1120 UTC
Wind: from the W (270 degrees) at 23 MPH (20 KT) gusting to 38 MPH (33 KT):0
Visibility: greater than 7 mile(s):0
Sky conditions: overcast
Weather: Cumulonimbus clouds observed
Temperature: 42 F (6 C)
Dew Point: 35 F (2 C)
Relative Humidity: 75%
Pressure (altimeter): 29.68 in. Hg (1005 hPa)
ob: EDDB 301120Z AUTO 27020G33KT 9999 BKN023 BKN029 OVC039 06/02 Q1005 TEMPO 28025G35KT SHRA BKN020CB
cycle: 11

Station Type Date Time Source
EDDB TAF 2023/01/30 12:27 UTC NOAA

TAF TAF EDDB 301100Z 3012/3112 28020G30KT 9999 BKN030
TEMPO 3012/3017 28025G40KT SHRA BKN020CB PROB40
TEMPO 3012/3015 4500 TSRAGS BKN013CB
TEMPO 3017/3024 28015G25KT
BECMG 3100/3104 28015G25KT
BECMG 3108/3112 BKN012 PROB30
TEMPO 3109/3112 4500 RADZ BKN008

Example: see airport list